www.cux-wetter.de
Wetterdaten: Donnerstag, 06.11.2014
Datum Zeit Temp. A. Feuchte A. Luftdruck Regen Wind Richtung Richtung Sonnenschein Solar Taupunkt Windchill Windben
06.11.2014 00:00 9,6 C 84 % 1005,5 hPa 0,0 l/m 7,2 km/h (2 Bft) N 10 0 min 0 W/m 7,0 C 9,0 C 7,2 km/h (2 Bft)
06.11.2014 00:15 9,6 C 85 % 1005,5 hPa 0,0 l/m 7,6 km/h (2 Bft) N-NO 25 0 min 0 W/m 7,2 C 8,7 C 7,6 km/h (2 Bft)
06.11.2014 00:29 9,8 C 85 % 1005,5 hPa 0,0 l/m 8,5 km/h (2 Bft) NO 35 0 min 0 W/m 7,4 C 8,3 C 8,5 km/h (2 Bft)
06.11.2014 00:45 9,9 C 85 % 1005,5 hPa 0,0 l/m 12,5 km/h (2 Bft) N-NO 20 0 min 0 W/m 7,5 C 6,1 C 12,5 km/h (2 Bft)
06.11.2014 01:00 9,9 C 85 % 1005,5 hPa 0,0 l/m 12,3 km/h (2 Bft) N-NO 25 0 min 0 W/m 7,5 C 6,2 C 12,3 km/h (2 Bft)
06.11.2014 01:15 9,8 C 85 % 1005,5 hPa 0,0 l/m 12,9 km/h (3 Bft) NO 55 0 min 0 W/m 7,4 C 5,8 C 12,9 km/h (3 Bft)
06.11.2014 01:30 9,8 C 85 % 1005,5 hPa 0,0 l/m 9,0 km/h (2 Bft) NO 35 0 min 0 W/m 7,4 C 8,0 C 9,0 km/h (2 Bft)
06.11.2014 01:45 9,8 C 85 % 1005,5 hPa 0,0 l/m 11,6 km/h (2 Bft) N-NO 20 0 min 0 W/m 7,4 C 6,5 C 11,6 km/h (2 Bft)
06.11.2014 02:00 9,6 C 85 % 1005,5 hPa 0,0 l/m 15,5 km/h (3 Bft) N-NO 30 0 min 0 W/m 7,2 C 4,4 C 15,5 km/h (3 Bft)
06.11.2014 02:15 9,6 C 84 % 1005,5 hPa 0,0 l/m 15,5 km/h (3 Bft) NO 35 0 min 0 W/m 7,0 C 4,4 C 15,5 km/h (3 Bft)
06.11.2014 02:30 9,6 C 83 % 1005,5 hPa 0,0 l/m 14,5 km/h (3 Bft) N-NO 30 0 min 0 W/m 6,9 C 4,9 C 14,5 km/h (3 Bft)
06.11.2014 02:45 9,6 C 84 % 1006,5 hPa 0,0 l/m 11,8 km/h (2 Bft) N-NO 25 0 min 0 W/m 7,0 C 6,2 C 11,8 km/h (2 Bft)
06.11.2014 03:00 9,6 C 84 % 1006,5 hPa 0,0 l/m 11,1 km/h (2 Bft) N-NO 15 0 min 0 W/m 7,0 C 6,5 C 11,1 km/h (2 Bft)
06.11.2014 03:15 9,4 C 84 % 1006,5 hPa 0,0 l/m 10,5 km/h (2 Bft) N-NO 25 0 min 0 W/m 6,8 C 6,6 C 10,5 km/h (2 Bft)
06.11.2014 03:30 9,5 C 84 % 1006,5 hPa 0,0 l/m 8,1 km/h (2 Bft) N 10 0 min 0 W/m 6,9 C 8,3 C 8,1 km/h (2 Bft)
06.11.2014 03:45 9,5 C 84 % 1006,5 hPa 0,0 l/m 6,5 km/h (2 Bft) N-NO 15 0 min 0 W/m 6,9 C 9,5 C 6,5 km/h (2 Bft)
06.11.2014 04:00 9,5 C 84 % 1006,5 hPa 0,0 l/m 0,3 km/h (0 Bft) N 355 0 min 0 W/m 6,9 C 9,5 C 0,3 km/h (0 Bft)
06.11.2014 04:15 9,4 C 84 % 1006,5 hPa 0,0 l/m 0,0 km/h (0 Bft) N 355 0 min 0 W/m 6,8 C 9,4 C 0,0 km/h (0 Bft)
06.11.2014 04:29 9,4 C 84 % 1006,5 hPa 0,0 l/m 0,7 km/h (0 Bft) N 360 0 min 0 W/m 6,8 C 9,4 C 0,7 km/h (0 Bft)
06.11.2014 04:45 9,3 C 84 % 1006,5 hPa 0,0 l/m 0,5 km/h (0 Bft) N 360 0 min 0 W/m 6,7 C 9,3 C 0,5 km/h (0 Bft)
06.11.2014 05:00 9,3 C 85 % 1006,5 hPa 0,0 l/m 1,4 km/h (1 Bft) N-NW 345 0 min 0 W/m 6,9 C 9,3 C 1,4 km/h (1 Bft)
06.11.2014 05:15 9,3 C 85 % 1006,5 hPa 0,0 l/m 5,0 km/h (1 Bft) NW 320 0 min 0 W/m 6,9 C 9,3 C 5,0 km/h (1 Bft)
06.11.2014 05:29 9,3 C 85 % 1006,5 hPa 0,0 l/m 2,0 km/h (1 Bft) NW 310 0 min 0 W/m 6,9 C 9,3 C 2,0 km/h (1 Bft)
06.11.2014 05:45 9,2 C 85 % 1006,5 hPa 0,0 l/m 3,3 km/h (1 Bft) NW 310 0 min 0 W/m 6,8 C 9,2 C 3,3 km/h (1 Bft)
06.11.2014 06:00 9,0 C 85 % 1006,5 hPa 0,0 l/m 4,0 km/h (1 Bft) NW 310 0 min 0 W/m 6,6 C 9,0 C 4,0 km/h (1 Bft)
06.11.2014 06:15 8,8 C 85 % 1006,5 hPa 0,0 l/m 0,3 km/h (0 Bft) NW 305 0 min 0 W/m 6,4 C 8,8 C 0,3 km/h (0 Bft)
06.11.2014 06:30 8,9 C 85 % 1007,5 hPa 0,0 l/m 0,0 km/h (0 Bft) NW 310 0 min 0 W/m 6,5 C 8,9 C 0,0 km/h (0 Bft)
06.11.2014 06:45 8,8 C 85 % 1007,5 hPa 0,0 l/m 0,0 km/h (0 Bft) NW 310 0 min 0 W/m 6,4 C 8,8 C 0,0 km/h (0 Bft)
06.11.2014 07:00 8,8 C 85 % 1007,5 hPa 0,0 l/m 1,9 km/h (1 Bft) NW 310 0 min 0 W/m 6,4 C 8,8 C 1,9 km/h (1 Bft)
06.11.2014 07:15 8,9 C 86 % 1007,5 hPa 0,0 l/m 0,0 km/h (0 Bft) NW 310 0 min 0 W/m 6,7 C 8,9 C 0,0 km/h (0 Bft)
06.11.2014 07:30 8,8 C 86 % 1007,5 hPa 0,0 l/m 0,0 km/h (0 Bft) NW 310 0 min 0 W/m 6,6 C 8,8 C 0,0 km/h (0 Bft)
06.11.2014 07:45 8,8 C 86 % 1007,5 hPa 0,0 l/m 0,0 km/h (0 Bft) NW 310 0 min 0 W/m 6,6 C 8,8 C 0,0 km/h (0 Bft)
06.11.2014 08:00 8,8 C 86 % 1007,5 hPa 0,0 l/m 0,0 km/h (0 Bft) NW 310 0 min 0 W/m 6,6 C 8,8 C 0,0 km/h (0 Bft)
06.11.2014 08:15 8,8 C 86 % 1007,5 hPa 0,0 l/m 0,0 km/h (0 Bft) NW 310 0 min 0 W/m 6,6 C 8,8 C 0,0 km/h (0 Bft)
06.11.2014 08:30 8,8 C 86 % 1007,5 hPa 0,0 l/m 0,0 km/h (0 Bft) NW 310 0 min 0 W/m 6,6 C 8,8 C 0,0 km/h (0 Bft)
06.11.2014 08:45 8,8 C 86 % 1007,5 hPa 0,0 l/m 0,0 km/h (0 Bft) NW 310 0 min 0 W/m 6,6 C 8,8 C 0,0 km/h (0 Bft)
06.11.2014 09:00 9,0 C 87 % 1007,5 hPa 0,0 l/m 0,0 km/h (0 Bft) NW 310 0 min 0 W/m 7,0 C 9,0 C 0,0 km/h (0 Bft)
06.11.2014 09:15 9,0 C 87 % 1007,5 hPa 0,0 l/m 0,0 km/h (0 Bft) NW 310 0 min 0 W/m 7,0 C 9,0 C 0,0 km/h (0 Bft)
06.11.2014 09:30 9,3 C 87 % 1008,5 hPa 0,0 l/m 0,0 km/h (0 Bft) NW 310 0 min 0 W/m 7,2 C 9,3 C 0,0 km/h (0 Bft)
06.11.2014 09:45 9,5 C 87 % 1008,5 hPa 0,0 l/m 0,4 km/h (0 Bft) NW 310 0 min 0 W/m 7,4 C 9,5 C 0,4 km/h (0 Bft)
06.11.2014 09:59 9,7 C 88 % 1008,5 hPa 0,0 l/m 0,0 km/h (0 Bft) NW 310 0 min 0 W/m 7,8 C 9,7 C 0,0 km/h (0 Bft)
06.11.2014 10:14 10,1 C 88 % 1008,5 hPa 0,0 l/m 0,0 km/h (0 Bft) NW 310 0 min 0 W/m 8,2 C 10,1 C 0,0 km/h (0 Bft)
06.11.2014 10:30 10,6 C 88 % 1008,5 hPa 0,0 l/m 0,0 km/h (0 Bft) NW 310 0 min 0 W/m 8,7 C 10,6 C 0,0 km/h (0 Bft)
06.11.2014 10:45 10,9 C 88 % 1008,5 hPa 0,0 l/m 0,0 km/h (0 Bft) NW 310 0 min 0 W/m 9,0 C 10,9 C 0,0 km/h (0 Bft)
06.11.2014 10:59 11,2 C 88 % 1008,5 hPa 0,0 l/m 3,0 km/h (1 Bft) NW 305 0 min 0 W/m 9,3 C 11,2 C 3,0 km/h (1 Bft)
06.11.2014 11:15 11,8 C 87 % 1008,5 hPa 0,0 l/m 6,1 km/h (2 Bft) NW 325 0 min 0 W/m 9,7 C 11,8 C 6,1 km/h (2 Bft)
06.11.2014 11:30 12,1 C 85 % 1008,5 hPa 0,0 l/m 7,8 km/h (2 Bft) W 280 0 min 0 W/m 9,7 C 11,2 C 7,8 km/h (2 Bft)
06.11.2014 11:45 12,1 C 84 % 1008,5 hPa 0,0 l/m 11,9 km/h (2 Bft) W 265 0 min 0 W/m 9,5 C 9,0 C 11,9 km/h (2 Bft)
06.11.2014 12:00 12,2 C 84 % 1008,5 hPa 0,0 l/m 14,3 km/h (3 Bft) NW 310 0 min 0 W/m 9,6 C 8,1 C 14,3 km/h (3 Bft)
06.11.2014 12:15 12,1 C 84 % 1008,5 hPa 0,0 l/m 21,3 km/h (4 Bft) W 270 0 min 0 W/m 9,5 C 5,6 C 21,3 km/h (4 Bft)
06.11.2014 12:30 12,0 C 85 % 1008,5 hPa 0,0 l/m 23,3 km/h (4 Bft) W 265 0 min 0 W/m 9,6 C 5,0 C 23,3 km/h (4 Bft)
06.11.2014 12:45 12,0 C 85 % 1008,5 hPa 0,0 l/m 24,5 km/h (4 Bft) W 275 0 min 0 W/m 9,6 C 4,7 C 24,5 km/h (4 Bft)
06.11.2014 13:00 12,4 C 82 % 1008,5 hPa 0,0 l/m 28,1 km/h (5 Bft) W 280 0 min 0 W/m 9,4 C 4,4 C 28,1 km/h (5 Bft)
06.11.2014 13:15 12,3 C 81 % 1008,5 hPa 0,0 l/m 21,5 km/h (4 Bft) W-NW 285 0 min 0 W/m 9,1 C 5,8 C 21,5 km/h (4 Bft)
06.11.2014 13:30 12,3 C 81 % 1008,5 hPa 0,0 l/m 23,2 km/h (4 Bft) W-NW 285 0 min 0 W/m 9,1 C 5,4 C 23,2 km/h (4 Bft)
06.11.2014 13:45 12,2 C 79 % 1008,5 hPa 0,0 l/m 23,5 km/h (4 Bft) W 275 0 min 0 W/m 8,7 C 5,2 C 23,5 km/h (4 Bft)
06.11.2014 14:00 12,2 C 78 % 1008,5 hPa 0,0 l/m 21,0 km/h (4 Bft) W 275 0 min 0 W/m 8,5 C 5,8 C 21,0 km/h (4 Bft)
06.11.2014 14:15 11,7 C 79 % 1008,5 hPa 0,0 l/m 23,9 km/h (4 Bft) W 275 0 min 0 W/m 8,2 C 4,4 C 23,9 km/h (4 Bft)
06.11.2014 14:30 11,3 C 81 % 1008,5 hPa 0,0 l/m 23,0 km/h (4 Bft) W 270 0 min 0 W/m 8,2 C 4,1 C 23,0 km/h (4 Bft)
06.11.2014 14:45 11,0 C 83 % 1008,5 hPa 0,0 l/m 22,1 km/h (4 Bft) W 275 0 min 0 W/m 8,2 C 4,0 C 22,1 km/h (4 Bft)
06.11.2014 15:00 10,6 C 83 % 1008,5 hPa 0,0 l/m 23,3 km/h (4 Bft) W 275 0 min 0 W/m 7,8 C 3,1 C 23,3 km/h (4 Bft)
06.11.2014 15:15 10,2 C 83 % 1008,5 hPa 0,0 l/m 20,5 km/h (4 Bft) W-NW 285 0 min 0 W/m 7,4 C 3,4 C 20,5 km/h (4 Bft)
06.11.2014 15:30 10,1 C 84 % 1008,5 hPa 0,0 l/m 19,4 km/h (3 Bft) W 270 0 min 0 W/m 7,5 C 3,6 C 19,4 km/h (3 Bft)
06.11.2014 15:44 9,9 C 84 % 1008,5 hPa 0,0 l/m 21,4 km/h (4 Bft) W 280 0 min 0 W/m 7,3 C 2,7 C 21,4 km/h (4 Bft)
06.11.2014 16:00 9,8 C 85 % 1008,5 hPa 0,0 l/m 13,3 km/h (3 Bft) W 265 0 min 0 W/m 7,4 C 5,6 C 13,3 km/h (3 Bft)
06.11.2014 16:15 9,9 C 84 % 1009,5 hPa 0,0 l/m 15,6 km/h (3 Bft) W-SW 245 0 min 0 W/m 7,3 C 4,8 C 15,6 km/h (3 Bft)
06.11.2014 16:30 10,0 C 85 % 1009,5 hPa 0,0 l/m 9,0 km/h (2 Bft) W-SW 250 0 min 0 W/m 7,6 C 8,2 C 9,0 km/h (2 Bft)
06.11.2014 16:44 10,0 C 84 % 1009,5 hPa 0,0 l/m 8,9 km/h (2 Bft) W-SW 250 0 min 0 W/m 7,4 C 8,3 C 8,9 km/h (2 Bft)
06.11.2014 17:00 10,0 C 84 % 1009,5 hPa 0,0 l/m 8,0 km/h (2 Bft) W-SW 245 0 min 0 W/m 7,4 C 8,9 C 8,0 km/h (2 Bft)
06.11.2014 17:15 10,0 C 84 % 1009,5 hPa 0,0 l/m 11,8 km/h (2 Bft) S-SW 210 0 min 0 W/m 7,4 C 6,6 C 11,8 km/h (2 Bft)
06.11.2014 17:30 10,0 C 84 % 1009,5 hPa 0,0 l/m 8,6 km/h (2 Bft) SW 220 0 min 0 W/m 7,4 C 8,5 C 8,6 km/h (2 Bft)
06.11.2014 17:45 9,8 C 84 % 1009,5 hPa 0,0 l/m 8,6 km/h (2 Bft) W-SW 255 0 min 0 W/m 7,2 C 8,2 C 8,6 km/h (2 Bft)
06.11.2014 18:00 9,6 C 84 % 1009,5 hPa 0,0 l/m 4,5 km/h (1 Bft) S-SW 205 0 min 0 W/m 7,0 C 9,6 C 4,5 km/h (1 Bft)
06.11.2014 18:15 9,5 C 84 % 1010,5 hPa 0,0 l/m 4,1 km/h (1 Bft) S-SW 205 0 min 0 W/m 6,9 C 9,5 C 4,1 km/h (1 Bft)
06.11.2014 18:30 9,5 C 84 % 1010,5 hPa 0,0 l/m 1,8 km/h (1 Bft) S-SW 205 0 min 0 W/m 6,9 C 9,5 C 1,8 km/h (1 Bft)
06.11.2014 18:45 9,4 C 84 % 1010,5 hPa 0,0 l/m 0,9 km/h (0 Bft) S-SW 205 0 min 0 W/m 6,8 C 9,4 C 0,9 km/h (0 Bft)
06.11.2014 19:00 9,3 C 84 % 1010,5 hPa 0,0 l/m 4,8 km/h (1 Bft) S-SW 205 0 min 0 W/m 6,7 C 9,3 C 4,8 km/h (1 Bft)
06.11.2014 19:15 9,2 C 84 % 1010,5 hPa 0,0 l/m 1,2 km/h (1 Bft) S-SW 205 0 min 0 W/m 6,6 C 9,2 C 1,2 km/h (1 Bft)
06.11.2014 19:30 9,2 C 84 % 1009,5 hPa 0,0 l/m 6,5 km/h (2 Bft) S 170 0 min 0 W/m 6,6 C 9,2 C 6,5 km/h (2 Bft)
06.11.2014 19:45 9,1 C 84 % 1009,5 hPa 0,0 l/m 5,8 km/h (2 Bft) S 170 0 min 0 W/m 6,5 C 9,1 C 5,8 km/h (2 Bft)
06.11.2014 20:00 9,1 C 84 % 1009,5 hPa 0,0 l/m 3,9 km/h (1 Bft) S-SO 165 0 min 0 W/m 6,5 C 9,1 C 3,9 km/h (1 Bft)
06.11.2014 20:15 8,9 C 83 % 1009,5 hPa 0,0 l/m 4,0 km/h (1 Bft) S-SO 165 0 min 0 W/m 6,2 C 8,9 C 4,0 km/h (1 Bft)
06.11.2014 20:29 8,6 C 84 % 1009,5 hPa 0,0 l/m 5,7 km/h (2 Bft) S-SO 165 0 min 0 W/m 6,1 C 8,6 C 5,7 km/h (2 Bft)
06.11.2014 20:45 8,5 C 84 % 1009,5 hPa 0,0 l/m 5,8 km/h (2 Bft) S 175 0 min 0 W/m 6,0 C 8,5 C 5,8 km/h (2 Bft)
06.11.2014 21:00 8,3 C 84 % 1009,5 hPa 0,0 l/m 5,9 km/h (2 Bft) S 175 0 min 0 W/m 5,8 C 8,3 C 5,9 km/h (2 Bft)
06.11.2014 21:15 8,4 C 85 % 1009,5 hPa 0,0 l/m 12,3 km/h (2 Bft) S 180 0 min 0 W/m 6,0 C 4,5 C 12,3 km/h (2 Bft)
06.11.2014 21:30 8,3 C 85 % 1009,5 hPa 0,0 l/m 8,5 km/h (2 Bft) S 190 0 min 0 W/m 5,9 C 6,7 C 8,5 km/h (2 Bft)
06.11.2014 21:45 8,2 C 85 % 1009,5 hPa 0,0 l/m 7,9 km/h (2 Bft) S 190 0 min 0 W/m 5,8 C 7,0 C 7,9 km/h (2 Bft)
06.11.2014 22:00 8,1 C 85 % 1009,5 hPa 0,0 l/m 11,0 km/h (2 Bft) S 180 0 min 0 W/m 5,7 C 4,9 C 11,0 km/h (2 Bft)
06.11.2014 22:15 7,8 C 86 % 1009,5 hPa 0,0 l/m 9,8 km/h (2 Bft) S 175 0 min 0 W/m 5,6 C 5,3 C 9,8 km/h (2 Bft)
06.11.2014 22:30 7,4 C 86 % 1009,5 hPa 0,0 l/m 8,7 km/h (2 Bft) S 180 0 min 0 W/m 5,2 C 5,6 C 8,7 km/h (2 Bft)
06.11.2014 22:45 7,2 C 86 % 1009,5 hPa 0,0 l/m 7,9 km/h (2 Bft) S 185 0 min 0 W/m 5,0 C 6,0 C 7,9 km/h (2 Bft)
06.11.2014 23:00 7,0 C 86 % 1009,5 hPa 0,0 l/m 7,8 km/h (2 Bft) S-SO 165 0 min 0 W/m 4,8 C 5,9 C 7,8 km/h (2 Bft)
06.11.2014 23:14 6,8 C 86 % 1008,5 hPa 0,0 l/m 10,5 km/h (2 Bft) S 180 0 min 0 W/m 4,6 C 3,7 C 10,5 km/h (2 Bft)
06.11.2014 23:30 6,5 C 86 % 1008,5 hPa 0,0 l/m 8,9 km/h (2 Bft) S-SO 165 0 min 0 W/m 4,3 C 4,5 C 8,9 km/h (2 Bft)
06.11.2014 23:45 6,5 C 86 % 1008,5 hPa 0,0 l/m 9,7 km/h (2 Bft) S 180 0 min 0 W/m 4,3 C 3,9 C 9,7 km/h (2 Bft)
06.11.2014 23:59 6,4 C 86 % 1008,5 hPa 0,0 l/m 9,7 km/h (2 Bft) S-SW 195 0 min 0 W/m 4,2 C 3,8 C 9,7 km/h (2 Bft)
_ Min-Zeit 23:59 14:00 00:00 - 04:15 - - - - 23:59 15:44 04:15
Minimum _ 6,4 C 78 % 1005,5 hPa - 0,0 km/h (0 Bft) - - - - 4,2 C 2,7 C 0,0 km/h (0 Bft)
_ Max-Zeit 13:00 09:59 18:15 00:00 13:00 - - 00:00 00:00 11:15 11:15 13:00
Maximum _ 12,4 C 88 % 1010,5 hPa 0,0 l/m 28,1 km/h
W (5 Bft)
- - 0 min 0 W/m 9,7 C 11,8 C 28,1 km/h
W-NW (5 Bft)
Durchschnitt _ 9,6 C 85 % 1008,1 hPa #0,0 l/m 8,6 km/h (2 Bft) W - #0 min. 0 W/m 7,1 C 7,5 C 8,6 km/h (2 Bft)
copyright by Holger Just